createdAt,value
2018-03-08T00:00:42.582Z,1.43
2018-03-08T00:03:09.723Z,1.30
2018-03-08T00:05:36.432Z,1.40
2018-03-08T00:08:02.844Z,1.07
2018-03-08T00:10:29.295Z,1.70
2018-03-08T00:12:56.073Z,1.30
2018-03-08T00:15:23.240Z,1.10
2018-03-08T00:17:50.428Z,1.40
2018-03-08T00:20:16.899Z,1.30
2018-03-08T00:22:43.311Z,1.47
2018-03-08T00:25:09.729Z,1.20
2018-03-08T00:27:36.141Z,1.30
2018-03-08T00:30:02.617Z,1.50
2018-03-08T00:32:29.025Z,1.37
2018-03-08T00:34:55.475Z,1.60
2018-03-08T00:37:21.970Z,1.30
2018-03-08T00:39:48.394Z,1.17
2018-03-08T00:42:14.820Z,1.20
2018-03-08T00:44:41.235Z,1.33
2018-03-08T00:47:07.643Z,1.43
2018-03-08T00:49:34.062Z,1.53
2018-03-08T00:52:00.480Z,1.70
2018-03-08T00:54:27.637Z,1.13
2018-03-08T00:56:54.823Z,2.10
2018-03-08T00:59:21.245Z,1.50
2018-03-08T01:01:47.676Z,1.70
2018-03-08T01:04:14.144Z,1.70
2018-03-08T01:06:40.552Z,1.40
2018-03-08T01:09:06.961Z,1.70
2018-03-08T01:11:33.449Z,1.50
2018-03-08T01:13:59.879Z,1.33
2018-03-08T01:16:26.326Z,2.00
2018-03-08T01:18:53.542Z,1.90
2018-03-08T01:21:19.958Z,1.50
2018-03-08T01:23:46.425Z,1.70
2018-03-08T01:26:12.901Z,1.73
2018-03-08T01:28:39.393Z,1.90
2018-03-08T01:31:05.833Z,1.30
2018-03-08T01:33:32.252Z,1.57
2018-03-08T01:35:58.689Z,1.50
2018-03-08T01:38:25.133Z,1.53
2018-03-08T01:40:51.601Z,1.27
2018-03-08T01:43:18.058Z,1.27
2018-03-08T01:45:45.517Z,1.53
2018-03-08T01:48:11.942Z,1.33
2018-03-08T01:50:38.356Z,1.30
2018-03-08T01:53:04.791Z,1.67
2018-03-08T01:55:31.256Z,1.50
2018-03-08T01:57:57.689Z,1.50
2018-03-08T02:00:24.149Z,1.60
2018-03-08T02:02:50.567Z,1.40
2018-03-08T02:05:17.009Z,1.33
2018-03-08T02:07:43.438Z,1.30
2018-03-08T02:10:09.929Z,1.60
2018-03-08T02:12:36.419Z,1.50
2018-03-08T02:15:02.895Z,1.67
2018-03-08T02:17:31.089Z,1.93
2018-03-08T02:19:58.316Z,1.83
2018-03-08T02:22:24.764Z,1.80
2018-03-08T02:24:51.204Z,1.47
2018-03-08T02:27:17.697Z,1.50
2018-03-08T02:29:45.023Z,1.70
2018-03-08T02:32:11.552Z,2.10
2018-03-08T02:34:38.000Z,1.43
2018-03-08T02:37:04.444Z,1.90
2018-03-08T02:39:30.909Z,2.00
2018-03-08T02:41:57.330Z,1.60
2018-03-08T02:44:23.805Z,1.60
2018-03-08T02:46:50.263Z,1.70
2018-03-08T02:49:16.707Z,1.53
2018-03-08T02:51:44.180Z,1.50
2018-03-08T02:54:10.686Z,1.67
2018-03-08T02:56:37.289Z,1.80
2018-03-08T02:59:03.835Z,1.60
2018-03-08T03:01:31.122Z,1.80
2018-03-08T03:03:57.671Z,1.80
2018-03-08T03:06:24.222Z,1.70
2018-03-08T03:08:51.538Z,1.73
2018-03-08T03:11:18.833Z,1.33
2018-03-08T03:13:45.426Z,1.70
2018-03-08T03:16:12.014Z,1.97
2018-03-08T03:18:38.601Z,2.03
2018-03-08T03:21:05.346Z,1.80
2018-03-08T03:23:31.887Z,1.80
2018-03-08T03:25:58.434Z,1.60
2018-03-08T03:28:24.966Z,1.50
2018-03-08T03:30:51.591Z,1.60
2018-03-08T03:33:18.159Z,1.53
2018-03-08T03:35:44.740Z,1.10
2018-03-08T03:38:12.042Z,1.50
2018-03-08T03:40:38.575Z,1.63
2018-03-08T03:43:05.124Z,1.60
2018-03-08T03:45:31.668Z,1.67
2018-03-08T03:47:58.216Z,1.53
2018-03-08T03:50:24.802Z,1.60
2018-03-08T03:52:52.111Z,1.87
2018-03-08T03:55:18.640Z,1.73
2018-03-08T03:57:45.172Z,1.83
2018-03-08T04:00:11.741Z,1.60
2018-03-08T04:02:38.480Z,1.80
2018-03-08T04:05:05.086Z,1.80
2018-03-08T04:07:31.593Z,1.73
2018-03-08T04:09:58.186Z,1.43
2018-03-08T04:12:24.769Z,1.80
2018-03-08T04:14:51.293Z,2.07
2018-03-08T04:17:18.687Z,4.93
2018-03-08T04:19:45.235Z,3.53
2018-03-08T04:22:11.840Z,6.57
2018-03-08T04:24:38.390Z,3.30
2018-03-08T04:27:04.971Z,2.87
2018-03-08T04:29:31.559Z,1.63
2018-03-08T04:31:58.069Z,1.63
2018-03-08T04:34:25.390Z,1.80
2018-03-08T04:36:51.910Z,2.30
2018-03-08T04:39:18.526Z,3.00
2018-03-08T04:41:45.070Z,1.90
2018-03-08T04:44:11.619Z,1.60
2018-03-08T04:46:39.217Z,2.17
2018-03-08T04:49:05.834Z,1.87
2018-03-08T04:51:32.439Z,1.83
2018-03-08T04:53:59.060Z,2.00
2018-03-08T04:56:25.603Z,1.80
2018-03-08T04:58:52.136Z,1.90
2018-03-08T05:01:18.667Z,2.30
2018-03-08T05:03:45.297Z,1.80
2018-03-08T05:06:12.530Z,1.73
2018-03-08T05:08:39.070Z,2.17
2018-03-08T05:11:06.418Z,2.43
2018-03-08T05:13:34.697Z,2.27
2018-03-08T05:16:01.247Z,2.10
2018-03-08T05:18:27.828Z,2.10
2018-03-08T05:20:55.493Z,2.05
2018-03-08T05:23:22.022Z,2.00
2018-03-08T05:25:49.557Z,1.80
2018-03-08T05:28:16.848Z,2.17
2018-03-08T05:30:43.387Z,2.50
2018-03-08T05:33:09.953Z,1.97
2018-03-08T05:35:36.483Z,2.00
2018-03-08T05:38:03.089Z,1.90
2018-03-08T05:40:29.598Z,2.10
2018-03-08T05:42:56.140Z,2.10
2018-03-08T05:45:22.702Z,2.23
2018-03-08T05:47:49.261Z,2.30
2018-03-08T05:50:15.825Z,2.43
2018-03-08T05:52:43.106Z,2.00
2018-03-08T05:55:09.691Z,2.53
2018-03-08T05:57:36.194Z,3.20
2018-03-08T06:00:02.842Z,3.60
2018-03-08T06:02:29.428Z,2.90
2018-03-08T06:04:56.711Z,2.70
2018-03-08T06:07:24.061Z,2.50
2018-03-08T06:09:50.613Z,3.20
2018-03-08T06:12:17.229Z,2.17
2018-03-08T06:14:44.515Z,2.13
2018-03-08T06:17:11.056Z,2.60
2018-03-08T06:19:37.639Z,2.80
2018-03-08T06:22:04.229Z,2.80
2018-03-08T06:24:30.770Z,2.23
2018-03-08T06:26:57.307Z,2.75
2018-03-08T06:29:23.899Z,2.80
2018-03-08T06:31:51.178Z,2.67
2018-03-08T06:34:17.723Z,2.40
2018-03-08T06:36:44.346Z,2.05
2018-03-08T06:39:10.879Z,2.05
2018-03-08T06:41:37.474Z,2.58
2018-03-08T06:44:06.982Z,2.25
2018-03-08T06:46:33.538Z,2.53
2018-03-08T06:49:00.829Z,2.75
2018-03-08T06:51:27.378Z,1.85
2018-03-08T06:53:53.935Z,2.70
2018-03-08T06:56:20.523Z,2.57
2018-03-08T06:58:47.091Z,2.70
2018-03-08T07:01:13.645Z,2.50
2018-03-08T07:03:40.267Z,2.33
2018-03-08T07:06:06.848Z,2.73
2018-03-08T07:08:34.141Z,2.37
2018-03-08T07:11:00.753Z,2.33
2018-03-08T07:13:28.031Z,2.57
2018-03-08T07:15:54.642Z,1.83
2018-03-08T07:18:21.234Z,2.27
2018-03-08T07:20:47.820Z,2.10
2018-03-08T07:23:15.099Z,1.80
2018-03-08T07:25:41.645Z,2.00
2018-03-08T07:28:08.215Z,1.43
2018-03-08T07:30:34.772Z,2.10
2018-03-08T07:33:02.075Z,2.40
2018-03-08T07:35:28.666Z,1.70
2018-03-08T07:37:55.996Z,1.70
2018-03-08T07:40:22.549Z,2.37
2018-03-08T07:42:49.127Z,1.70
2018-03-08T07:45:15.707Z,1.83
2018-03-08T07:47:42.260Z,1.77
2018-03-08T07:50:09.604Z,2.93
2018-03-08T07:52:36.202Z,2.00
2018-03-08T07:55:02.786Z,1.50
2018-03-08T07:57:32.015Z,3.27
2018-03-08T07:59:58.550Z,1.70
2018-03-08T08:02:26.895Z,2.33
2018-03-08T08:05:05.424Z,2.33
2018-03-08T08:07:44.266Z,3.47
2018-03-08T08:10:10.885Z,3.47
2018-03-08T08:12:37.470Z,3.63
2018-03-08T08:15:04.098Z,2.07
2018-03-08T08:17:30.713Z,2.13
2018-03-08T08:19:58.038Z,1.30
2018-03-08T08:22:24.762Z,2.13
2018-03-08T08:24:51.414Z,4.77
2018-03-08T08:27:18.005Z,1.80
2018-03-08T08:29:44.635Z,1.40
2018-03-08T08:32:12.054Z,0.90
2018-03-08T08:34:38.626Z,1.30
2018-03-08T08:37:05.942Z,1.27
2018-03-08T08:39:32.523Z,1.50
2018-03-08T08:41:59.110Z,1.90
2018-03-08T08:44:25.662Z,1.17
2018-03-08T08:46:52.240Z,2.20
2018-03-08T08:49:19.532Z,1.27
2018-03-08T08:51:46.095Z,1.10
2018-03-08T08:54:12.634Z,1.30
2018-03-08T08:56:40.195Z,1.30
2018-03-08T08:59:06.734Z,0.80
2018-03-08T09:01:33.254Z,1.10
2018-03-08T09:03:59.839Z,1.10
2018-03-08T09:06:27.129Z,1.10
2018-03-08T09:08:53.744Z,1.40
2018-03-08T09:11:20.399Z,0.93
2018-03-08T09:13:46.915Z,0.90
2018-03-08T09:16:13.514Z,1.20
2018-03-08T09:18:40.037Z,1.10
2018-03-08T09:21:06.628Z,1.67
2018-03-08T09:23:33.206Z,1.10
2018-03-08T09:25:59.761Z,1.20
2018-03-08T09:28:26.295Z,1.40
2018-03-08T09:30:52.862Z,1.10
2018-03-08T09:33:19.488Z,0.90
2018-03-08T09:35:46.090Z,0.90
2018-03-08T09:38:12.667Z,0.93
2018-03-08T09:40:39.240Z,0.93
2018-03-08T09:43:05.836Z,0.90
2018-03-08T09:45:33.167Z,0.90
2018-03-08T09:47:59.746Z,1.00
2018-03-08T09:50:27.083Z,0.93
2018-03-08T09:52:53.624Z,0.90
2018-03-08T09:55:20.182Z,1.10
2018-03-08T09:57:46.798Z,1.10
2018-03-08T10:00:13.505Z,0.80
2018-03-08T10:02:40.139Z,1.00
2018-03-08T10:05:06.747Z,1.30
2018-03-08T10:07:33.490Z,1.70
2018-03-08T10:10:00.203Z,1.20
2018-03-08T10:12:27.090Z,1.87
2018-03-08T10:14:53.864Z,1.40
2018-03-08T10:17:20.615Z,2.10
2018-03-08T10:19:47.979Z,0.97
2018-03-08T10:22:14.640Z,1.30
2018-03-08T10:24:41.255Z,1.00
2018-03-08T10:27:08.592Z,1.40
2018-03-08T10:29:35.314Z,1.47
2018-03-08T10:32:02.151Z,1.50
2018-03-08T10:34:28.823Z,1.73
2018-03-08T10:36:56.264Z,2.23
2018-03-08T10:41:49.892Z,0.90
2018-03-08T10:44:16.570Z,1.07
2018-03-08T10:46:43.268Z,1.20
2018-03-08T10:49:10.014Z,1.37
2018-03-08T10:51:37.448Z,4.03
2018-03-08T10:54:04.199Z,0.97
2018-03-08T10:56:30.872Z,1.30
2018-03-08T10:58:58.567Z,1.30
2018-03-08T11:01:25.194Z,1.83
2018-03-08T11:03:55.864Z,1.10
2018-03-08T11:06:28.047Z,1.20
2018-03-08T11:08:55.426Z,1.00
2018-03-08T11:11:22.115Z,1.10
2018-03-08T11:13:48.779Z,1.10
2018-03-08T11:16:16.221Z,1.10
2018-03-08T11:18:43.675Z,2.10
2018-03-08T11:21:10.374Z,1.23
2018-03-08T11:23:37.141Z,1.50
2018-03-08T11:26:03.817Z,0.90
2018-03-08T11:28:30.503Z,1.30
2018-03-08T11:30:57.987Z,0.90
2018-03-08T11:33:24.653Z,0.93
2018-03-08T11:35:51.383Z,1.10
2018-03-08T11:38:18.054Z,1.10
2018-03-08T11:40:45.454Z,0.77
2018-03-08T11:43:12.115Z,0.73
2018-03-08T11:45:38.795Z,0.97
2018-03-08T11:48:05.478Z,1.10
2018-03-08T11:50:32.113Z,1.00
2018-03-08T11:52:58.785Z,0.90
2018-03-08T11:55:25.414Z,0.87
2018-03-08T11:57:52.088Z,0.90
2018-03-08T12:00:18.715Z,1.03
2018-03-08T12:02:46.236Z,1.10
2018-03-08T12:05:12.894Z,1.20
2018-03-08T12:07:39.717Z,0.90
2018-03-08T12:10:07.261Z,2.27
2018-03-08T12:12:34.017Z,1.53
2018-03-08T12:15:00.697Z,1.00
2018-03-08T12:17:28.139Z,1.33
2018-03-08T12:19:54.838Z,1.30
2018-03-08T12:22:21.499Z,1.10
2018-03-08T12:24:48.221Z,1.00
2018-03-08T12:27:14.879Z,0.87
2018-03-08T12:29:41.511Z,0.90
2018-03-08T12:32:08.220Z,0.87
2018-03-08T12:34:34.914Z,1.10
2018-03-08T12:37:01.642Z,1.40
2018-03-08T12:39:28.364Z,1.10
2018-03-08T12:41:55.168Z,1.70
2018-03-08T12:44:21.881Z,0.93
2018-03-08T12:46:48.685Z,1.20
2018-03-08T12:49:15.524Z,1.40
2018-03-08T12:51:42.250Z,1.20
2018-03-08T12:54:09.024Z,1.10
2018-03-08T12:56:36.116Z,1.30
2018-03-08T12:59:02.803Z,1.10
2018-03-08T13:01:29.514Z,1.30
2018-03-08T13:03:56.239Z,1.33
2018-03-08T13:06:23.681Z,1.10
2018-03-08T13:08:51.096Z,1.70
2018-03-08T13:11:18.638Z,1.30
2018-03-08T13:13:45.295Z,1.40
2018-03-08T13:16:11.998Z,1.03
2018-03-08T13:18:39.443Z,1.70
2018-03-08T13:21:06.209Z,1.10
2018-03-08T13:23:32.951Z,2.40
2018-03-08T13:26:00.460Z,3.07
2018-03-08T13:28:27.184Z,4.53
2018-03-08T13:30:53.856Z,3.63
2018-03-08T13:33:20.599Z,1.40
2018-03-08T13:35:47.265Z,0.77
2018-03-08T13:38:14.665Z,2.33
2018-03-08T13:40:41.361Z,2.50
2018-03-08T13:43:08.091Z,1.60
2018-03-08T13:45:35.510Z,1.77
2018-03-08T13:48:02.202Z,1.10
2018-03-08T13:50:29.624Z,1.23
2018-03-08T13:52:56.247Z,1.20
2018-03-08T13:55:22.930Z,7.07
2018-03-08T13:57:49.699Z,4.60
2018-03-08T14:00:16.462Z,1.87
2018-03-08T14:02:43.073Z,1.40
2018-03-08T14:05:09.767Z,1.20
2018-03-08T14:07:36.483Z,1.03
2018-03-08T14:10:04.101Z,1.20
2018-03-08T14:12:31.503Z,1.10
2018-03-08T14:14:58.959Z,0.90
2018-03-08T14:17:25.666Z,0.83
2018-03-08T14:19:52.330Z,1.43
2018-03-08T14:22:20.055Z,1.57
2018-03-08T14:24:46.772Z,1.80
2018-03-08T14:27:13.428Z,1.20
2018-03-08T14:29:40.911Z,0.80
2018-03-08T14:32:08.271Z,0.80
2018-03-08T14:34:35.041Z,1.07
2018-03-08T14:37:01.679Z,0.97
2018-03-08T14:39:28.331Z,0.80
2018-03-08T14:41:55.002Z,0.67
2018-03-08T14:44:21.672Z,0.87
2018-03-08T14:46:48.311Z,0.77
2018-03-08T14:49:14.939Z,1.10
2018-03-08T14:51:42.336Z,0.60
2018-03-08T14:54:09.001Z,0.97
2018-03-08T14:56:35.773Z,0.90
2018-03-08T14:59:02.556Z,1.00
2018-03-08T15:01:29.192Z,0.83
2018-03-08T15:03:55.869Z,1.30
2018-03-08T15:06:22.496Z,1.20
2018-03-08T15:08:49.160Z,1.40
2018-03-08T15:11:15.875Z,0.90
2018-03-08T15:13:42.737Z,0.77
2018-03-08T15:16:09.559Z,1.80
2018-03-08T15:18:37.135Z,2.57
2018-03-08T15:21:03.820Z,1.23
2018-03-08T15:23:30.523Z,1.10
2018-03-08T15:25:57.166Z,1.43
2018-03-08T15:28:24.575Z,1.93
2018-03-08T15:30:51.226Z,1.50
2018-03-08T15:33:18.998Z,1.50
2018-03-08T15:35:45.702Z,1.00
2018-03-08T15:38:12.401Z,0.93
2018-03-08T15:40:39.039Z,2.43
2018-03-08T15:43:05.704Z,1.13
2018-03-08T15:45:32.428Z,0.80
2018-03-08T15:47:59.089Z,1.10
2018-03-08T15:50:26.523Z,1.30
2018-03-08T15:52:53.164Z,2.10
2018-03-08T15:55:19.785Z,1.53
2018-03-08T15:57:46.431Z,2.10
2018-03-08T16:00:13.060Z,1.60
2018-03-08T16:02:39.732Z,1.33
2018-03-08T16:05:06.411Z,1.00
2018-03-08T16:10:35.089Z,1.00
2018-03-08T16:13:02.503Z,1.00
2018-03-08T16:15:29.062Z,1.47
2018-03-08T16:17:55.680Z,1.07
2018-03-08T16:20:22.488Z,1.40
2018-03-08T16:22:52.927Z,1.30
2018-03-08T16:25:19.485Z,1.00
2018-03-08T16:27:46.014Z,1.70
2018-03-08T16:30:12.666Z,1.30
2018-03-08T16:32:39.350Z,1.17
2018-03-08T16:35:06.650Z,1.20
2018-03-08T16:37:33.397Z,1.47
2018-03-08T16:39:59.916Z,1.47
2018-03-08T16:42:26.480Z,1.50
2018-03-08T16:44:53.041Z,1.40
2018-03-08T16:47:19.662Z,3.70
2018-03-08T16:49:46.207Z,2.13
2018-03-08T16:52:12.815Z,1.77
2018-03-08T16:54:44.059Z,2.70
2018-03-08T16:57:10.647Z,2.07
2018-03-08T16:59:37.266Z,1.50
2018-03-08T17:02:03.924Z,1.57
2018-03-08T17:04:30.507Z,1.20
2018-03-08T17:06:57.163Z,1.20
2018-03-08T17:09:23.746Z,1.23
2018-03-08T17:11:51.254Z,1.30
2018-03-08T17:14:17.779Z,1.20
2018-03-08T17:16:45.106Z,1.40
2018-03-08T17:19:12.481Z,1.30
2018-03-08T17:21:39.027Z,1.70
2018-03-08T17:24:05.606Z,2.90
2018-03-08T17:26:32.259Z,4.13
2018-03-08T17:28:59.626Z,4.10
2018-03-08T17:31:26.154Z,6.33
2018-03-08T17:33:53.426Z,3.17
2018-03-08T17:36:20.742Z,2.40
2018-03-08T17:38:47.265Z,2.17
2018-03-08T17:41:13.936Z,1.90
2018-03-08T17:43:40.526Z,1.40
2018-03-08T17:46:08.163Z,1.37
2018-03-08T17:48:34.882Z,1.30
2018-03-08T17:51:01.485Z,1.20
2018-03-08T17:53:28.262Z,1.30
2018-03-08T17:55:55.655Z,1.23
2018-03-08T17:58:22.203Z,1.30
2018-03-08T18:00:48.729Z,1.07
2018-03-08T18:03:15.285Z,1.10
2018-03-08T18:05:41.832Z,2.10
2018-03-08T18:08:09.163Z,2.37
2018-03-08T18:10:41.161Z,1.30
2018-03-08T18:13:07.704Z,2.80
2018-03-08T18:15:34.261Z,1.30
2018-03-08T18:18:01.524Z,2.73
2018-03-08T18:20:28.245Z,2.47
2018-03-08T18:22:55.130Z,2.60
2018-03-08T18:25:21.710Z,3.63
2018-03-08T18:27:48.300Z,4.00
2018-03-08T18:30:15.606Z,3.83
2018-03-08T18:32:46.107Z,3.20
2018-03-08T18:35:12.725Z,1.90
2018-03-08T18:37:39.270Z,1.70
2018-03-08T18:40:06.012Z,1.43
2018-03-08T18:42:32.571Z,1.57
2018-03-08T18:47:56.165Z,1.47
2018-03-08T18:50:22.686Z,1.27
2018-03-08T18:52:49.192Z,1.50
2018-03-08T18:55:16.539Z,1.20
2018-03-08T18:57:43.098Z,1.10
2018-03-08T19:00:09.646Z,0.93
2018-03-08T19:02:36.343Z,1.50
2018-03-08T19:05:02.892Z,1.57
2018-03-08T19:07:30.199Z,1.60
2018-03-08T19:09:56.815Z,1.30
2018-03-08T19:12:23.390Z,1.47
2018-03-08T19:14:50.694Z,1.83
2018-03-08T19:17:17.218Z,1.30
2018-03-08T19:19:44.528Z,1.30
2018-03-08T19:22:11.084Z,1.80
2018-03-08T19:24:38.417Z,1.43
2018-03-08T19:27:04.989Z,1.90
2018-03-08T19:29:31.499Z,3.03
2018-03-08T19:31:58.156Z,2.43
2018-03-08T19:34:25.755Z,1.83
2018-03-08T19:37:09.730Z,1.27
2018-03-08T19:39:36.369Z,1.53
2018-03-08T19:42:06.796Z,2.67
2018-03-08T19:44:44.506Z,3.63
2018-03-08T19:47:11.073Z,3.00
2018-03-08T19:49:38.369Z,3.00
2018-03-08T19:52:04.922Z,2.07
2018-03-08T19:54:31.562Z,3.33
2018-03-08T19:56:58.117Z,2.27
2018-03-08T19:59:25.495Z,3.07
2018-03-08T20:01:53.277Z,3.10
2018-03-08T20:04:21.122Z,3.13
2018-03-08T20:06:49.303Z,5.07
2018-03-08T20:09:15.834Z,3.97
2018-03-08T20:11:42.374Z,4.13
2018-03-08T20:14:09.682Z,2.07
2018-03-08T20:16:38.368Z,1.70
2018-03-08T20:19:04.901Z,1.80
2018-03-08T20:21:31.453Z,1.60
2018-03-08T20:23:57.967Z,1.40
2018-03-08T20:26:24.502Z,1.73
2018-03-08T20:28:51.069Z,1.70
2018-03-08T20:31:17.588Z,1.40
2018-03-08T20:33:44.140Z,1.20
2018-03-08T20:36:10.677Z,1.80
2018-03-08T20:38:37.237Z,1.23
2018-03-08T20:41:04.556Z,1.67
2018-03-08T20:43:31.116Z,1.70
2018-03-08T20:45:57.808Z,1.80
2018-03-08T20:48:24.549Z,2.10
2018-03-08T20:50:51.142Z,1.50
2018-03-08T20:53:17.894Z,2.07
2018-03-08T20:55:44.414Z,1.60
2018-03-08T20:58:11.071Z,1.40
2018-03-08T21:00:37.648Z,1.80
2018-03-08T21:03:04.208Z,1.80
2018-03-08T21:05:30.734Z,1.40
2018-03-08T21:07:57.335Z,1.30
2018-03-08T21:10:23.912Z,2.70
2018-03-08T21:12:50.542Z,2.13
2018-03-08T21:15:17.131Z,2.57
2018-03-08T21:17:44.424Z,2.40
2018-03-08T21:20:10.963Z,1.50
2018-03-08T21:22:37.561Z,2.00
2018-03-08T21:25:04.120Z,1.90
2018-03-08T21:27:31.410Z,1.33
2018-03-08T21:29:57.993Z,1.30
2018-03-08T21:32:24.586Z,1.40
2018-03-08T21:34:51.232Z,1.03
2018-03-08T21:37:17.871Z,0.97
2018-03-08T21:39:44.394Z,0.83
2018-03-08T21:42:10.957Z,1.00
2018-03-08T21:44:37.544Z,1.20
2018-03-08T21:47:04.088Z,1.20
2018-03-08T21:49:31.336Z,0.93
2018-03-08T21:51:58.659Z,0.90
2018-03-08T21:54:25.946Z,0.97
2018-03-08T21:56:53.211Z,1.00
2018-03-08T21:59:19.766Z,1.37
2018-03-08T22:01:46.404Z,1.27
2018-03-08T22:04:12.930Z,0.97
2018-03-08T22:06:39.521Z,1.40
2018-03-08T22:09:06.066Z,1.17
2018-03-08T22:11:33.405Z,1.00
2018-03-08T22:14:00.702Z,0.93
2018-03-08T22:16:27.222Z,1.20
2018-03-08T22:18:54.470Z,1.30
2018-03-08T22:21:21.789Z,1.30
2018-03-08T22:23:48.336Z,1.10
2018-03-08T22:26:14.873Z,0.83
2018-03-08T22:28:41.439Z,0.90
2018-03-08T22:31:08.756Z,1.47
2018-03-08T22:33:35.369Z,1.00
2018-03-08T22:36:01.921Z,1.00
2018-03-08T22:38:28.551Z,1.20
2018-03-08T22:40:55.081Z,1.00
2018-03-08T22:43:21.643Z,1.20
2018-03-08T22:45:48.163Z,1.37
2018-03-08T22:48:14.686Z,0.80
2018-03-08T22:50:41.259Z,1.07
2018-03-08T22:53:07.802Z,1.00
2018-03-08T22:55:34.328Z,0.70
2018-03-08T22:58:01.177Z,0.90
2018-03-08T23:00:27.795Z,1.53
2018-03-08T23:03:00.369Z,1.53
2018-03-08T23:05:26.906Z,1.50
2018-03-08T23:07:53.490Z,1.40
2018-03-08T23:10:20.034Z,1.07
2018-03-08T23:12:46.654Z,1.20
2018-03-08T23:18:10.880Z,0.80
2018-03-08T23:20:37.388Z,0.80
2018-03-08T23:23:03.886Z,0.70
2018-03-08T23:25:30.378Z,0.90
2018-03-08T23:27:56.805Z,0.70
2018-03-08T23:30:24.790Z,0.70
2018-03-08T23:32:51.266Z,1.03
2018-03-08T23:35:17.745Z,0.60
2018-03-08T23:37:44.959Z,0.60
2018-03-08T23:40:11.426Z,0.60
2018-03-08T23:42:37.877Z,0.50
2018-03-08T23:45:04.337Z,0.37
2018-03-08T23:47:30.770Z,0.30
2018-03-08T23:49:57.976Z,0.50
2018-03-08T23:52:24.433Z,0.33
2018-03-08T23:54:50.888Z,0.40
2018-03-08T23:57:18.154Z,0.50
2018-03-08T23:59:44.639Z,0.40
